Detalii statie SOMALEX GHIMPATI [0000198E]

Toti senzorii

Date Temperatura solului [C]Precipitatii [mm]Voltaj baterie [mV]Leaf Wetness [Min]HC Air temperature [C]HC Relative humidity [%]Punctul de roua [C]
medieminmaxsumaultimatimpmedieminmaxmediemediemin
2018-08-12 11:00:00 21.9 21.9 22 0 7030 27.81 27.72 27.9 84.19 24.8 24.7
2018-08-12 11:10:00 22 22 22 0 6982 27.82 27.74 27.91 83.28 24.5 23.9
2018-08-12 11:20:00 22 21.9 22.1 0 7000 27.99 27.94 28.05 82.48 24.5 24.5
2018-08-12 11:30:00 22.1 22.1 22.1 0 7010 28.37 28.32 28.43 78.58 24.1 24
2018-08-12 11:40:00 22.1 22.1 22.2 0 7020 28.15 28.03 28.28 79.33 24.1 23.8
2018-08-12 11:50:00 22.2 22.2 22.3 0 7020 28.77 28.52 29.03 78.52 24.5 24.1
2018-08-12 12:00:00 22.3 22.2 22.4 0 7030 29.16 28.82 29.5 79.1 25 25
2018-08-12 12:10:00 22.3 22.3 22.4 0 7226 28.8 28.74 28.87 73.87 23.4 22.8
2018-08-12 12:20:00 22.3 22.3 22.4 0 7206 29.57 29.53 29.62 74.88 24.5 23.8
2018-08-12 12:30:00 22.4 22.4 22.5 0 7080 29.94 29.76 30.12 71.66 24.1 23.6
2018-08-12 12:40:00 22.5 22.5 22.6 0 7070 29.32 29.15 29.5 72.16 23.6 23.5
2018-08-12 12:50:00 22.7 22.6 22.9 0 7060 29.89 29.54 30.25 72.71 24.2 23.9
2018-08-12 13:00:00 22.6 22.6 22.6 0 7070 29.98 29.75 30.22 69.56 23.6 23.6
2018-08-12 13:10:00 22.8 22.7 22.9 0 7080 29.66 29.61 29.72 70.07 23.4 23.4
2018-08-12 13:20:00 22.8 22.7 23 0 7070 29.98 29.9 30.06 67.08 23 22.9
2018-08-12 13:30:00 23 23 23.1 0 7050 30.22 30.17 30.28 67.76 23.4 23.4
2018-08-12 13:40:00 23.1 23.1 23.2 0 7050 29.8 29.77 29.83 67.07 22.8 22.4
2018-08-12 13:50:00 23.2 23.2 23.2 0 7020 30.45 30.44 30.47 70.27 24.3 23.8
2018-08-12 14:00:00 23.4 23.3 23.5 0 7010 30.56 30.45 30.67 68.31 23.9 23.3
2018-08-12 14:10:00 23.5 23.5 23.6 0 6982 30.64 30.33 30.95 68.39 24 23.8
2018-08-12 14:20:00 23.6 23.6 23.7 0 7080 30.85 30.75 30.95 66.95 23.8 23.6
2018-08-12 14:30:00 23.6 23.6 23.7 0 7088 30.56 30.5 30.63 66.51 23.5 23.2
2018-08-12 14:40:00 23.7 23.6 23.8 0 7128 32.08 31.46 32.7 68.84 25.5 25.3
2018-08-12 14:50:00 23.7 23.6 23.8 0 7108 32.87 32.81 32.93 66.11 25.5 25.4
2018-08-12 15:00:00 23.7 23.7 23.8 0 7088 33.02 32.98 33.06 65.79 25.6 25.5
2018-08-12 15:10:00 23.7 23.6 23.8 0 7040 31.18 31.03 31.33 67.17 24.3 24.2
2018-08-12 15:20:00 23.5 23.4 23.6 0 7030 31.01 30.46 31.57 69.57 24.7 24.1
2018-08-12 15:30:00 23.6 23.6 23.6 0 7020 30.63 30.4 30.87 69.34 24.2 23.3
2018-08-12 15:40:00 23.6 23.6 23.6 0 7010 31.13 31.07 31.19 69.84 24.6 24.6
2018-08-12 15:50:00 23.5 23.4 23.6 0 6992 31.29 31.17 31.42 67.1 24.4 23.5
2018-08-12 16:00:00 23.5 23.5 23.5 0 6982 31.42 31.35 31.49 64.64 23.7 23.4
2018-08-12 16:10:00 23.5 23.5 23.6 0 6932 31.44 31.25 31.63 64.97 23.8 23.8
2018-08-12 16:20:00 23.5 23.5 23.5 0 6932 31.04 30.55 31.53 69.35 24.6 24.4
2018-08-12 16:30:00 23.5 23.5 23.5 0 6942 30.5 30.47 30.53 67.61 23.7 23.6
2018-08-12 16:40:00 23.4 23.3 23.5 0 6942 31.24 30.88 31.61 66.92 24.2 24
2018-08-12 16:50:00 23.5 23.5 23.5 0 6932 31.1 30.8 31.4 67.8 24.2 24
2018-08-12 17:00:00 23.5 23.4 23.6 0 6932 31.06 31.02 31.11 68.46 24.4 24.2
2018-08-12 17:10:00 23.5 23.5 23.6 0 6904 31.18 30.94 31.43 68.95 24.6 24.3
2018-08-12 17:20:00 23.5 23.5 23.6 0 6914 29.89 29.69 30.1 68.19 23.2 22.6
2018-08-12 17:30:00 23.5 23.4 23.7 0 6922 29.18 28.91 29.46 72.66 23.7 23.6
2018-08-12 17:40:00 23.6 23.6 23.6 0 6922 28.31 28.14 28.48 74.99 23.3 23.1
2018-08-12 17:50:00 23.5 23.4 23.6 0 6922 27.7 27.59 27.81 75.7 22.8 22.7
2018-08-12 18:00:00 23.6 23.6 23.6 0 6914 27.43 27.43 27.44 76.81 22.9 22.6
2018-08-12 18:10:00 23.5 23.5 23.6 0 6894 27.92 27.87 27.97 72.59 22.3 22.1
2018-08-12 18:20:00 23.3 23.2 23.5 0 6904 27.68 27.55 27.81 75.41 22.8 22.7
2018-08-12 18:30:00 23.5 23.5 23.5 0 6894 27.17 27.12 27.22 77.13 22.6 22.6
2018-08-12 18:40:00 23.4 23.3 23.5 0 6894 27.26 27.2 27.32 76.99 22.7 22.7
2018-08-12 18:50:00 23.4 23.3 23.5 0 6894 27.09 26.97 27.21 76.52 22.4 22.3